Aviation Digital Data Service (ADDS)

Output produced by METARs form (1231 UTC 01 November 2014)
found at http://aviationweather.gov/adds/metars/
 
KPHX 011152Z 0112/0212 17007KT P6SM FEW050 BKN200 
     FM011700 22011G17KT P6SM BKN050 
     FM012100 24010KT P6SM SCT060 
     FM020600 24007KT P6SM BKN060